sensor_id;sensor_type;location;lat;lon;timestamp;P1;durP1;ratioP1;P2;durP2;ratioP2
19798;SDS011;10059;59.850;10.454;2022-10-24T00:02:19;15.33;;;9.20;;
19798;SDS011;10059;59.850;10.454;2022-10-24T00:04:46;16.10;;;8.77;;
19798;SDS011;10059;59.850;10.454;2022-10-24T00:07:13;20.77;;;10.13;;
19798;SDS011;10059;59.850;10.454;2022-10-24T00:09:40;22.10;;;11.20;;
19798;SDS011;10059;59.850;10.454;2022-10-24T00:12:08;19.00;;;9.93;;
19798;SDS011;10059;59.850;10.454;2022-10-24T00:14:35;19.40;;;10.60;;
19798;SDS011;10059;59.850;10.454;2022-10-24T00:17:02;21.30;;;10.30;;
19798;SDS011;10059;59.850;10.454;2022-10-24T00:19:31;18.73;;;10.93;;
19798;SDS011;10059;59.850;10.454;2022-10-24T00:21:58;22.53;;;11.20;;
19798;SDS011;10059;59.850;10.454;2022-10-24T00:24:25;24.10;;;10.93;;
19798;SDS011;10059;59.850;10.454;2022-10-24T00:26:52;17.83;;;10.23;;
19798;SDS011;10059;59.850;10.454;2022-10-24T00:29:20;20.83;;;10.60;;
19798;SDS011;10059;59.850;10.454;2022-10-24T00:31:47;23.77;;;11.07;;
19798;SDS011;10059;59.850;10.454;2022-10-24T00:34:14;21.63;;;10.37;;
19798;SDS011;10059;59.850;10.454;2022-10-24T00:36:41;19.33;;;10.23;;
19798;SDS011;10059;59.850;10.454;2022-10-24T00:39:08;39.33;;;11.17;;
19798;SDS011;10059;59.850;10.454;2022-10-24T00:41:37;38.97;;;11.30;;
19798;SDS011;10059;59.850;10.454;2022-10-24T00:44:14;27.63;;;10.67;;
19798;SDS011;10059;59.850;10.454;2022-10-24T00:46:45;21.73;;;11.20;;
19798;SDS011;10059;59.850;10.454;2022-10-24T00:49:15;31.83;;;11.70;;
19798;SDS011;10059;59.850;10.454;2022-10-24T00:51:45;25.40;;;10.90;;
19798;SDS011;10059;59.850;10.454;2022-10-24T00:54:16;21.00;;;9.73;;
19798;SDS011;10059;59.850;10.454;2022-10-24T00:56:43;18.47;;;10.10;;
19798;SDS011;10059;59.850;10.454;2022-10-24T00:59:18;24.73;;;11.50;;
19798;SDS011;10059;59.850;10.454;2022-10-24T01:01:47;20.30;;;10.53;;
19798;SDS011;10059;59.850;10.454;2022-10-24T01:04:14;17.50;;;10.00;;
19798;SDS011;10059;59.850;10.454;2022-10-24T01:06:45;16.77;;;10.13;;
19798;SDS011;10059;59.850;10.454;2022-10-24T01:09:32;17.47;;;10.23;;
19798;SDS011;10059;59.850;10.454;2022-10-24T01:12:14;17.00;;;9.73;;
19798;SDS011;10059;59.850;10.454;2022-10-24T01:14:49;15.10;;;7.83;;
19798;SDS011;10059;59.850;10.454;2022-10-24T01:17:27;13.47;;;7.50;;
19798;SDS011;10059;59.850;10.454;2022-10-24T01:20:13;11.50;;;6.87;;
19798;SDS011;10059;59.850;10.454;2022-10-24T01:23:00;10.33;;;6.03;;
19798;SDS011;10059;59.850;10.454;2022-10-24T01:25:39;11.47;;;6.03;;
19798;SDS011;10059;59.850;10.454;2022-10-24T01:28:12;8.90;;;5.43;;
19798;SDS011;10059;59.850;10.454;2022-10-24T01:30:43;8.73;;;5.07;;
19798;SDS011;10059;59.850;10.454;2022-10-24T01:33:14;6.87;;;4.80;;
19798;SDS011;10059;59.850;10.454;2022-10-24T01:35:46;8.00;;;4.53;;
19798;SDS011;10059;59.850;10.454;2022-10-24T01:38:18;8.07;;;4.87;;
19798;SDS011;10059;59.850;10.454;2022-10-24T01:40:51;8.43;;;4.80;;
19798;SDS011;10059;59.850;10.454;2022-10-24T01:43:22;7.33;;;4.27;;
19798;SDS011;10059;59.850;10.454;2022-10-24T01:45:54;7.17;;;4.43;;
19798;SDS011;10059;59.850;10.454;2022-10-24T01:48:24;6.20;;;3.73;;
19798;SDS011;10059;59.850;10.454;2022-10-24T01:50:53;5.20;;;3.53;;
19798;SDS011;10059;59.850;10.454;2022-10-24T01:53:22;4.73;;;3.23;;
19798;SDS011;10059;59.850;10.454;2022-10-24T01:55:50;4.67;;;3.10;;
19798;SDS011;10059;59.850;10.454;2022-10-24T01:58:19;4.10;;;2.90;;
19798;SDS011;10059;59.850;10.454;2022-10-24T02:00:47;4.10;;;2.83;;
19798;SDS011;10059;59.850;10.454;2022-10-24T02:03:20;4.33;;;2.80;;
19798;SDS011;10059;59.850;10.454;2022-10-24T02:05:51;4.60;;;3.03;;
19798;SDS011;10059;59.850;10.454;2022-10-24T02:08:22;3.57;;;2.43;;
19798;SDS011;10059;59.850;10.454;2022-10-24T02:10:54;4.63;;;2.53;;
19798;SDS011;10059;59.850;10.454;2022-10-24T02:13:24;2.57;;;2.23;;
19798;SDS011;10059;59.850;10.454;2022-10-24T02:15:55;3.27;;;2.30;;
19798;SDS011;10059;59.850;10.454;2022-10-24T02:18:26;4.20;;;2.30;;
19798;SDS011;10059;59.850;10.454;2022-10-24T02:20:56;2.70;;;2.00;;
19798;SDS011;10059;59.850;10.454;2022-10-24T02:23:32;2.70;;;1.90;;
19798;SDS011;10059;59.850;10.454;2022-10-24T02:26:04;2.60;;;2.03;;
19798;SDS011;10059;59.850;10.454;2022-10-24T02:28:36;2.97;;;2.07;;
19798;SDS011;10059;59.850;10.454;2022-10-24T02:31:08;3.53;;;2.10;;
19798;SDS011;10059;59.850;10.454;2022-10-24T02:33:41;1.73;;;1.60;;
19798;SDS011;10059;59.850;10.454;2022-10-24T02:36:10;1.93;;;1.73;;
19798;SDS011;10059;59.850;10.454;2022-10-24T02:38:41;1.90;;;1.50;;
19798;SDS011;10059;59.850;10.454;2022-10-24T02:41:11;2.00;;;1.60;;
19798;SDS011;10059;59.850;10.454;2022-10-24T02:43:43;2.70;;;1.60;;
19798;SDS011;10059;59.850;10.454;2022-10-24T02:46:14;2.43;;;1.70;;
19798;SDS011;10059;59.850;10.454;2022-10-24T02:48:46;1.87;;;1.60;;
19798;SDS011;10059;59.850;10.454;2022-10-24T02:51:16;1.73;;;1.50;;
19798;SDS011;10059;59.850;10.454;2022-10-24T02:53:46;2.30;;;1.60;;
19798;SDS011;10059;59.850;10.454;2022-10-24T02:56:14;1.87;;;1.60;;
19798;SDS011;10059;59.850;10.454;2022-10-24T02:58:41;2.13;;;1.73;;
19798;SDS011;10059;59.850;10.454;2022-10-24T03:01:08;1.97;;;1.50;;
19798;SDS011;10059;59.850;10.454;2022-10-24T03:03:35;2.90;;;1.90;;
19798;SDS011;10059;59.850;10.454;2022-10-24T03:06:04;1.60;;;1.50;;
19798;SDS011;10059;59.850;10.454;2022-10-24T03:08:31;1.80;;;1.30;;
19798;SDS011;10059;59.850;10.454;2022-10-24T03:10:58;1.83;;;1.37;;
19798;SDS011;10059;59.850;10.454;2022-10-24T03:13:25;1.40;;;1.30;;
19798;SDS011;10059;59.850;10.454;2022-10-24T03:15:52;1.80;;;1.30;;
19798;SDS011;10059;59.850;10.454;2022-10-24T03:18:19;1.60;;;1.30;;
19798;SDS011;10059;59.850;10.454;2022-10-24T03:20:46;1.63;;;1.30;;
19798;SDS011;10059;59.850;10.454;2022-10-24T03:23:14;1.90;;;1.53;;
19798;SDS011;10059;59.850;10.454;2022-10-24T03:25:43;1.63;;;1.50;;
19798;SDS011;10059;59.850;10.454;2022-10-24T03:28:10;1.90;;;1.70;;
19798;SDS011;10059;59.850;10.454;2022-10-24T03:30:37;1.50;;;1.37;;
19798;SDS011;10059;59.850;10.454;2022-10-24T03:33:04;2.70;;;1.40;;
19798;SDS011;10059;59.850;10.454;2022-10-24T03:35:31;1.60;;;1.30;;
19798;SDS011;10059;59.850;10.454;2022-10-24T03:37:57;1.73;;;1.20;;
19798;SDS011;10059;59.850;10.454;2022-10-24T03:40:26;1.43;;;1.20;;
19798;SDS011;10059;59.850;10.454;2022-10-24T03:42:53;1.30;;;1.20;;
19798;SDS011;10059;59.850;10.454;2022-10-24T03:45:20;1.47;;;1.30;;
19798;SDS011;10059;59.850;10.454;2022-10-24T03:47:47;1.50;;;1.40;;
19798;SDS011;10059;59.850;10.454;2022-10-24T03:50:14;1.63;;;1.50;;
19798;SDS011;10059;59.850;10.454;2022-10-24T03:52:41;1.40;;;1.17;;
19798;SDS011;10059;59.850;10.454;2022-10-24T03:55:08;1.70;;;1.10;;
19798;SDS011;10059;59.850;10.454;2022-10-24T03:57:37;1.70;;;1.00;;
19798;SDS011;10059;59.850;10.454;2022-10-24T04:00:04;1.30;;;1.00;;
19798;SDS011;10059;59.850;10.454;2022-10-24T04:02:32;1.53;;;1.00;;
19798;SDS011;10059;59.850;10.454;2022-10-24T04:04:59;1.93;;;1.20;;
19798;SDS011;10059;59.850;10.454;2022-10-24T04:07:26;1.60;;;1.17;;
19798;SDS011;10059;59.850;10.454;2022-10-24T04:09:53;1.87;;;1.30;;
19798;SDS011;10059;59.850;10.454;2022-10-24T04:12:21;3.00;;;0.90;;
19798;SDS011;10059;59.850;10.454;2022-10-24T04:14:49;1.40;;;1.27;;
19798;SDS011;10059;59.850;10.454;2022-10-24T04:17:16;1.93;;;1.40;;
19798;SDS011;10059;59.850;10.454;2022-10-24T04:19:43;2.07;;;1.63;;
19798;SDS011;10059;59.850;10.454;2022-10-24T04:22:10;1.83;;;1.30;;
19798;SDS011;10059;59.850;10.454;2022-10-24T04:24:37;3.50;;;1.60;;
19798;SDS011;10059;59.850;10.454;2022-10-24T04:27:04;1.40;;;1.20;;
19798;SDS011;10059;59.850;10.454;2022-10-24T04:29:31;1.53;;;1.17;;
19798;SDS011;10059;59.850;10.454;2022-10-24T04:31:59;1.20;;;1.00;;
19798;SDS011;10059;59.850;10.454;2022-10-24T04:34:26;1.50;;;1.13;;
19798;SDS011;10059;59.850;10.454;2022-10-24T04:36:53;3.30;;;1.00;;
19798;SDS011;10059;59.850;10.454;2022-10-24T04:39:20;1.30;;;1.20;;
19798;SDS011;10059;59.850;10.454;2022-10-24T04:41:47;1.30;;;1.10;;
19798;SDS011;10059;59.850;10.454;2022-10-24T04:44:14;1.67;;;1.13;;
19798;SDS011;10059;59.850;10.454;2022-10-24T04:46:41;4.27;;;2.97;;
19798;SDS011;10059;59.850;10.454;2022-10-24T04:49:09;1.13;;;1.03;;
19798;SDS011;10059;59.850;10.454;2022-10-24T04:51:36;3.07;;;1.10;;
19798;SDS011;10059;59.850;10.454;2022-10-24T04:54:03;5.30;;;3.90;;
19798;SDS011;10059;59.850;10.454;2022-10-24T04:56:31;4.87;;;3.23;;
19798;SDS011;10059;59.850;10.454;2022-10-24T04:58:58;3.83;;;2.43;;
19798;SDS011;10059;59.850;10.454;2022-10-24T05:01:25;3.80;;;2.80;;
19798;SDS011;10059;59.850;10.454;2022-10-24T05:03:52;5.90;;;4.07;;
19798;SDS011;10059;59.850;10.454;2022-10-24T05:06:20;7.80;;;5.87;;
19798;SDS011;10059;59.850;10.454;2022-10-24T05:08:47;4.63;;;3.87;;
19798;SDS011;10059;59.850;10.454;2022-10-24T05:11:14;6.77;;;3.93;;
19798;SDS011;10059;59.850;10.454;2022-10-24T05:13:41;3.60;;;2.70;;
19798;SDS011;10059;59.850;10.454;2022-10-24T05:16:08;6.90;;;4.67;;
19798;SDS011;10059;59.850;10.454;2022-10-24T05:18:35;6.73;;;4.93;;
19798;SDS011;10059;59.850;10.454;2022-10-24T05:21:02;6.20;;;4.00;;
19798;SDS011;10059;59.850;10.454;2022-10-24T05:23:30;13.73;;;9.23;;
19798;SDS011;10059;59.850;10.454;2022-10-24T05:25:57;5.40;;;3.57;;
19798;SDS011;10059;59.850;10.454;2022-10-24T05:28:24;5.60;;;3.53;;
19798;SDS011;10059;59.850;10.454;2022-10-24T05:30:51;4.60;;;2.93;;
19798;SDS011;10059;59.850;10.454;2022-10-24T05:33:18;3.90;;;2.40;;
19798;SDS011;10059;59.850;10.454;2022-10-24T05:35:45;2.60;;;1.90;;
19798;SDS011;10059;59.850;10.454;2022-10-24T05:38:13;4.33;;;2.30;;
19798;SDS011;10059;59.850;10.454;2022-10-24T05:40:41;4.73;;;3.70;;
19798;SDS011;10059;59.850;10.454;2022-10-24T05:43:11;3.80;;;2.30;;
19798;SDS011;10059;59.850;10.454;2022-10-24T05:45:39;4.57;;;2.80;;
19798;SDS011;10059;59.850;10.454;2022-10-24T05:48:06;3.40;;;2.03;;
19798;SDS011;10059;59.850;10.454;2022-10-24T05:50:33;2.87;;;2.23;;
19798;SDS011;10059;59.850;10.454;2022-10-24T05:53:00;2.60;;;1.77;;
19798;SDS011;10059;59.850;10.454;2022-10-24T05:55:27;7.03;;;5.03;;
19798;SDS011;10059;59.850;10.454;2022-10-24T05:57:56;5.13;;;4.03;;
19798;SDS011;10059;59.850;10.454;2022-10-24T06:00:23;4.73;;;2.63;;
19798;SDS011;10059;59.850;10.454;2022-10-24T06:02:50;6.10;;;2.73;;
19798;SDS011;10059;59.850;10.454;2022-10-24T06:05:17;2.70;;;2.20;;
19798;SDS011;10059;59.850;10.454;2022-10-24T06:07:44;4.03;;;2.40;;
19798;SDS011;10059;59.850;10.454;2022-10-24T06:10:11;4.83;;;2.73;;
19798;SDS011;10059;59.850;10.454;2022-10-24T06:12:38;3.80;;;2.20;;
19798;SDS011;10059;59.850;10.454;2022-10-24T06:15:07;2.57;;;1.93;;
19798;SDS011;10059;59.850;10.454;2022-10-24T06:17:35;3.20;;;2.20;;
19798;SDS011;10059;59.850;10.454;2022-10-24T06:20:02;3.23;;;1.93;;
19798;SDS011;10059;59.850;10.454;2022-10-24T06:22:29;2.10;;;1.70;;
19798;SDS011;10059;59.850;10.454;2022-10-24T06:24:56;2.17;;;1.50;;
19798;SDS011;10059;59.850;10.454;2022-10-24T06:27:24;3.97;;;1.10;;
19798;SDS011;10059;59.850;10.454;2022-10-24T06:29:51;3.23;;;1.10;;
19798;SDS011;10059;59.850;10.454;2022-10-24T06:32:19;1.50;;;1.10;;
19798;SDS011;10059;59.850;10.454;2022-10-24T06:34:46;2.10;;;1.00;;
19798;SDS011;10059;59.850;10.454;2022-10-24T06:37:13;2.57;;;1.40;;
19798;SDS011;10059;59.850;10.454;2022-10-24T06:39:39;3.67;;;1.83;;
19798;SDS011;10059;59.850;10.454;2022-10-24T06:42:06;3.23;;;1.23;;
19798;SDS011;10059;59.850;10.454;2022-10-24T06:44:33;1.33;;;0.90;;
19798;SDS011;10059;59.850;10.454;2022-10-24T06:47:00;2.10;;;0.70;;
19798;SDS011;10059;59.850;10.454;2022-10-24T06:49:28;2.63;;;1.00;;
19798;SDS011;10059;59.850;10.454;2022-10-24T06:51:55;0.80;;;0.73;;
19798;SDS011;10059;59.850;10.454;2022-10-24T06:54:22;0.90;;;0.80;;
19798;SDS011;10059;59.850;10.454;2022-10-24T06:56:49;1.83;;;1.30;;
19798;SDS011;10059;59.850;10.454;2022-10-24T06:59:16;2.33;;;1.30;;
19798;SDS011;10059;59.850;10.454;2022-10-24T07:01:43;2.40;;;1.70;;
19798;SDS011;10059;59.850;10.454;2022-10-24T07:04:11;3.27;;;2.00;;
19798;SDS011;10059;59.850;10.454;2022-10-24T07:06:39;2.97;;;2.37;;
19798;SDS011;10059;59.850;10.454;2022-10-24T07:09:06;4.53;;;3.47;;
19798;SDS011;10059;59.850;10.454;2022-10-24T07:11:33;23.93;;;12.37;;
19798;SDS011;10059;59.850;10.454;2022-10-24T07:14:00;5.53;;;3.07;;
19798;SDS011;10059;59.850;10.454;2022-10-24T07:16:27;2.13;;;1.43;;
19798;SDS011;10059;59.850;10.454;2022-10-24T07:18:54;2.30;;;1.93;;
19798;SDS011;10059;59.850;10.454;2022-10-24T07:21:22;2.33;;;1.60;;
19798;SDS011;10059;59.850;10.454;2022-10-24T07:23:52;3.57;;;1.50;;
19798;SDS011;10059;59.850;10.454;2022-10-24T07:26:20;1.40;;;1.10;;
19798;SDS011;10059;59.850;10.454;2022-10-24T07:28:49;8.83;;;6.57;;
19798;SDS011;10059;59.850;10.454;2022-10-24T07:31:19;28.03;;;18.53;;
19798;SDS011;10059;59.850;10.454;2022-10-24T07:33:47;12.70;;;8.03;;
19798;SDS011;10059;59.850;10.454;2022-10-24T07:36:15;13.90;;;7.90;;
19798;SDS011;10059;59.850;10.454;2022-10-24T07:38:44;8.00;;;5.50;;
19798;SDS011;10059;59.850;10.454;2022-10-24T07:41:12;5.77;;;4.47;;
19798;SDS011;10059;59.850;10.454;2022-10-24T07:43:39;5.00;;;3.40;;
19798;SDS011;10059;59.850;10.454;2022-10-24T07:46:07;4.10;;;2.33;;
19798;SDS011;10059;59.850;10.454;2022-10-24T07:48:35;2.87;;;1.97;;
19798;SDS011;10059;59.850;10.454;2022-10-24T07:51:04;6.37;;;3.30;;
19798;SDS011;10059;59.850;10.454;2022-10-24T07:53:31;4.63;;;2.87;;
19798;SDS011;10059;59.850;10.454;2022-10-24T07:55:58;2.70;;;2.03;;
19798;SDS011;10059;59.850;10.454;2022-10-24T07:58:27;2.07;;;1.67;;
19798;SDS011;10059;59.850;10.454;2022-10-24T08:00:54;1.90;;;1.47;;
19798;SDS011;10059;59.850;10.454;2022-10-24T08:03:27;2.83;;;1.40;;
19798;SDS011;10059;59.850;10.454;2022-10-24T08:05:54;1.73;;;1.50;;
19798;SDS011;10059;59.850;10.454;2022-10-24T08:08:21;7.07;;;1.57;;
19798;SDS011;10059;59.850;10.454;2022-10-24T08:10:48;6.30;;;4.07;;
19798;SDS011;10059;59.850;10.454;2022-10-24T08:13:15;5.50;;;3.90;;
19798;SDS011;10059;59.850;10.454;2022-10-24T08:15:43;4.47;;;3.00;;
19798;SDS011;10059;59.850;10.454;2022-10-24T08:18:10;3.80;;;2.00;;
19798;SDS011;10059;59.850;10.454;2022-10-24T08:20:37;1.40;;;1.30;;
19798;SDS011;10059;59.850;10.454;2022-10-24T08:23:04;0.50;;;0.50;;
19798;SDS011;10059;59.850;10.454;2022-10-24T08:25:31;0.70;;;0.70;;
19798;SDS011;10059;59.850;10.454;2022-10-24T08:27:58;1.13;;;0.87;;
19798;SDS011;10059;59.850;10.454;2022-10-24T08:30:25;1.90;;;1.60;;
19798;SDS011;10059;59.850;10.454;2022-10-24T08:32:53;3.60;;;1.97;;
19798;SDS011;10059;59.850;10.454;2022-10-24T08:35:20;1.47;;;0.90;;
19798;SDS011;10059;59.850;10.454;2022-10-24T08:37:47;1.60;;;1.03;;
19798;SDS011;10059;59.850;10.454;2022-10-24T08:40:14;1.53;;;1.37;;
19798;SDS011;10059;59.850;10.454;2022-10-24T08:42:44;1.63;;;1.40;;
19798;SDS011;10059;59.850;10.454;2022-10-24T08:45:14;1.60;;;1.13;;
19798;SDS011;10059;59.850;10.454;2022-10-24T08:47:45;1.63;;;1.40;;
19798;SDS011;10059;59.850;10.454;2022-10-24T08:50:22;1.10;;;1.00;;
19798;SDS011;10059;59.850;10.454;2022-10-24T08:52:54;2.00;;;1.70;;
19798;SDS011;10059;59.850;10.454;2022-10-24T08:55:26;4.40;;;3.10;;
19798;SDS011;10059;59.850;10.454;2022-10-24T08:57:58;2.27;;;1.50;;
19798;SDS011;10059;59.850;10.454;2022-10-24T09:00:27;1.67;;;1.10;;
19798;SDS011;10059;59.850;10.454;2022-10-24T09:03:00;1.30;;;1.10;;
19798;SDS011;10059;59.850;10.454;2022-10-24T09:05:34;0.93;;;0.90;;
19798;SDS011;10059;59.850;10.454;2022-10-24T09:08:11;1.97;;;1.13;;
19798;SDS011;10059;59.850;10.454;2022-10-24T09:10:47;2.20;;;1.57;;
19798;SDS011;10059;59.850;10.454;2022-10-24T09:13:19;6.30;;;2.40;;
19798;SDS011;10059;59.850;10.454;2022-10-24T09:15:48;12.67;;;3.97;;
19798;SDS011;10059;59.850;10.454;2022-10-24T09:18:17;3.87;;;1.83;;
19798;SDS011;10059;59.850;10.454;2022-10-24T09:20:48;4.60;;;3.30;;
19798;SDS011;10059;59.850;10.454;2022-10-24T09:23:17;4.20;;;2.33;;
19798;SDS011;10059;59.850;10.454;2022-10-24T09:25:46;2.60;;;1.33;;
19798;SDS011;10059;59.850;10.454;2022-10-24T09:28:15;2.60;;;1.50;;
19798;SDS011;10059;59.850;10.454;2022-10-24T09:30:43;1.60;;;1.10;;
19798;SDS011;10059;59.850;10.454;2022-10-24T09:33:14;9.67;;;3.87;;
19798;SDS011;10059;59.850;10.454;2022-10-24T09:35:50;18.87;;;7.87;;
19798;SDS011;10059;59.850;10.454;2022-10-24T09:38:23;1.50;;;0.70;;
19798;SDS011;10059;59.850;10.454;2022-10-24T09:40:58;1.70;;;0.90;;
19798;SDS011;10059;59.850;10.454;2022-10-24T09:43:30;26.27;;;12.43;;
19798;SDS011;10059;59.850;10.454;2022-10-24T09:46:01;23.13;;;14.20;;
19798;SDS011;10059;59.850;10.454;2022-10-24T09:48:38;9.27;;;6.03;;
19798;SDS011;10059;59.850;10.454;2022-10-24T09:51:21;2.37;;;1.90;;
19798;SDS011;10059;59.850;10.454;2022-10-24T09:54:03;2.43;;;1.50;;
19798;SDS011;10059;59.850;10.454;2022-10-24T09:56:50;3.43;;;2.03;;
19798;SDS011;10059;59.850;10.454;2022-10-24T09:59:26;3.00;;;2.00;;
19798;SDS011;10059;59.850;10.454;2022-10-24T10:02:15;4.40;;;1.60;;
19798;SDS011;10059;59.850;10.454;2022-10-24T10:04:44;2.70;;;1.97;;
19798;SDS011;10059;59.850;10.454;2022-10-24T10:07:14;5.50;;;2.70;;
19798;SDS011;10059;59.850;10.454;2022-10-24T10:09:51;4.60;;;2.63;;
19798;SDS011;10059;59.850;10.454;2022-10-24T10:12:24;6.20;;;1.90;;
19798;SDS011;10059;59.850;10.454;2022-10-24T10:14:52;4.77;;;2.43;;
19798;SDS011;10059;59.850;10.454;2022-10-24T10:17:21;2.70;;;2.10;;
19798;SDS011;10059;59.850;10.454;2022-10-24T10:19:49;3.13;;;1.60;;
19798;SDS011;10059;59.850;10.454;2022-10-24T10:22:23;3.47;;;1.63;;
19798;SDS011;10059;59.850;10.454;2022-10-24T10:24:51;7.13;;;2.40;;
19798;SDS011;10059;59.850;10.454;2022-10-24T10:27:25;6.57;;;4.50;;
19798;SDS011;10059;59.850;10.454;2022-10-24T10:30:08;4.67;;;3.40;;
19798;SDS011;10059;59.850;10.454;2022-10-24T10:32:44;6.37;;;3.10;;
19798;SDS011;10059;59.850;10.454;2022-10-24T10:35:27;4.67;;;2.57;;
19798;SDS011;10059;59.850;10.454;2022-10-24T10:38:00;4.07;;;2.93;;
19798;SDS011;10059;59.850;10.454;2022-10-24T10:40:36;6.93;;;5.23;;
19798;SDS011;10059;59.850;10.454;2022-10-24T10:43:15;4.50;;;2.60;;
19798;SDS011;10059;59.850;10.454;2022-10-24T10:45:54;5.57;;;3.27;;
19798;SDS011;10059;59.850;10.454;2022-10-24T10:48:39;3.23;;;2.23;;
19798;SDS011;10059;59.850;10.454;2022-10-24T10:51:16;5.17;;;2.80;;
19798;SDS011;10059;59.850;10.454;2022-10-24T10:53:57;9.07;;;4.97;;
19798;SDS011;10059;59.850;10.454;2022-10-24T10:56:30;4.40;;;2.57;;
19798;SDS011;10059;59.850;10.454;2022-10-24T10:59:13;6.70;;;3.53;;
19798;SDS011;10059;59.850;10.454;2022-10-24T11:01:54;6.70;;;4.40;;
19798;SDS011;10059;59.850;10.454;2022-10-24T11:04:28;31.73;;;19.07;;
19798;SDS011;10059;59.850;10.454;2022-10-24T11:07:02;20.53;;;9.70;;
19798;SDS011;10059;59.850;10.454;2022-10-24T11:09:40;17.03;;;10.77;;
19798;SDS011;10059;59.850;10.454;2022-10-24T11:12:11;15.43;;;8.80;;
19798;SDS011;10059;59.850;10.454;2022-10-24T11:14:44;12.03;;;7.13;;
19798;SDS011;10059;59.850;10.454;2022-10-24T11:17:16;4.57;;;2.87;;
19798;SDS011;10059;59.850;10.454;2022-10-24T11:19:58;3.83;;;2.83;;
19798;SDS011;10059;59.850;10.454;2022-10-24T11:22:31;3.57;;;2.20;;
19798;SDS011;10059;59.850;10.454;2022-10-24T11:25:06;4.17;;;2.60;;
19798;SDS011;10059;59.850;10.454;2022-10-24T11:27:43;5.23;;;2.90;;
19798;SDS011;10059;59.850;10.454;2022-10-24T11:30:16;4.80;;;2.90;;
19798;SDS011;10059;59.850;10.454;2022-10-24T11:32:56;7.93;;;3.80;;
19798;SDS011;10059;59.850;10.454;2022-10-24T11:35:27;6.63;;;4.50;;
19798;SDS011;10059;59.850;10.454;2022-10-24T11:37:55;5.57;;;3.93;;
19798;SDS011;10059;59.850;10.454;2022-10-24T11:40:27;5.07;;;3.60;;
19798;SDS011;10059;59.850;10.454;2022-10-24T11:42:55;5.27;;;3.00;;
19798;SDS011;10059;59.850;10.454;2022-10-24T11:45:31;5.27;;;3.80;;
19798;SDS011;10059;59.850;10.454;2022-10-24T11:48:05;4.37;;;2.77;;
19798;SDS011;10059;59.850;10.454;2022-10-24T11:50:42;4.83;;;3.07;;
19798;SDS011;10059;59.850;10.454;2022-10-24T11:56:13;3.77;;;2.37;;
19798;SDS011;10059;59.850;10.454;2022-10-24T11:58:46;3.43;;;2.30;;
19798;SDS011;10059;59.850;10.454;2022-10-24T12:07:20;3.57;;;2.10;;
19798;SDS011;10059;59.850;10.454;2022-10-24T12:10:08;3.47;;;2.00;;
19798;SDS011;10059;59.850;10.454;2022-10-24T12:12:56;3.10;;;2.00;;
19798;SDS011;10059;59.850;10.454;2022-10-24T12:15:48;3.97;;;2.27;;
19798;SDS011;10059;59.850;10.454;2022-10-24T12:18:24;4.73;;;2.33;;
19798;SDS011;10059;59.850;10.454;2022-10-24T12:20:55;2.67;;;1.90;;
19798;SDS011;10059;59.850;10.454;2022-10-24T12:23:26;2.73;;;1.90;;
19798;SDS011;10059;59.850;10.454;2022-10-24T12:26:02;3.03;;;2.20;;
19798;SDS011;10059;59.850;10.454;2022-10-24T12:28:33;3.70;;;2.20;;
19798;SDS011;10059;59.850;10.454;2022-10-24T12:31:07;4.60;;;2.63;;
19798;SDS011;10059;59.850;10.454;2022-10-24T12:33:45;4.23;;;2.03;;
19798;SDS011;10059;59.850;10.454;2022-10-24T12:39:27;4.87;;;2.40;;
19798;SDS011;10059;59.850;10.454;2022-10-24T12:41:55;4.97;;;2.20;;
19798;SDS011;10059;59.850;10.454;2022-10-24T12:44:37;5.83;;;2.20;;
19798;SDS011;10059;59.850;10.454;2022-10-24T12:53:03;4.57;;;2.77;;
19798;SDS011;10059;59.850;10.454;2022-10-24T12:58:38;3.07;;;1.90;;
19798;SDS011;10059;59.850;10.454;2022-10-24T13:01:09;4.70;;;2.27;;
19798;SDS011;10059;59.850;10.454;2022-10-24T13:03:54;4.83;;;1.40;;
19798;SDS011;10059;59.850;10.454;2022-10-24T13:06:41;3.57;;;1.30;;
19798;SDS011;10059;59.850;10.454;2022-10-24T13:09:21;3.27;;;1.50;;
19798;SDS011;10059;59.850;10.454;2022-10-24T13:12:01;2.73;;;1.40;;
19798;SDS011;10059;59.850;10.454;2022-10-24T13:14:42;3.60;;;1.20;;
19798;SDS011;10059;59.850;10.454;2022-10-24T13:17:31;2.17;;;1.40;;
19798;SDS011;10059;59.850;10.454;2022-10-24T13:20:04;3.80;;;1.50;;
19798;SDS011;10059;59.850;10.454;2022-10-24T13:22:40;2.20;;;1.43;;
19798;SDS011;10059;59.850;10.454;2022-10-24T13:25:17;3.43;;;1.50;;
19798;SDS011;10059;59.850;10.454;2022-10-24T13:27:55;2.53;;;1.83;;
19798;SDS011;10059;59.850;10.454;2022-10-24T13:34:11;3.23;;;2.10;;
19798;SDS011;10059;59.850;10.454;2022-10-24T13:36:42;2.40;;;1.60;;
19798;SDS011;10059;59.850;10.454;2022-10-24T13:39:11;2.40;;;1.50;;
19798;SDS011;10059;59.850;10.454;2022-10-24T13:41:43;2.43;;;1.60;;
19798;SDS011;10059;59.850;10.454;2022-10-24T13:44:17;2.77;;;1.20;;
19798;SDS011;10059;59.850;10.454;2022-10-24T13:46:50;5.20;;;1.20;;
19798;SDS011;10059;59.850;10.454;2022-10-24T13:49:21;1.40;;;1.13;;
19798;SDS011;10059;59.850;10.454;2022-10-24T13:51:53;2.07;;;1.30;;
19798;SDS011;10059;59.850;10.454;2022-10-24T13:54:25;1.60;;;1.10;;
19798;SDS011;10059;59.850;10.454;2022-10-24T13:56:55;3.80;;;1.30;;
19798;SDS011;10059;59.850;10.454;2022-10-24T13:59:25;2.47;;;1.27;;
19798;SDS011;10059;59.850;10.454;2022-10-24T14:01:54;3.17;;;1.70;;
19798;SDS011;10059;59.850;10.454;2022-10-24T14:06:58;4.70;;;2.40;;
19798;SDS011;10059;59.850;10.454;2022-10-24T14:09:27;3.33;;;2.07;;
19798;SDS011;10059;59.850;10.454;2022-10-24T14:11:54;3.13;;;2.00;;
19798;SDS011;10059;59.850;10.454;2022-10-24T14:14:26;3.40;;;1.93;;
19798;SDS011;10059;59.850;10.454;2022-10-24T14:17:05;3.73;;;2.23;;
19798;SDS011;10059;59.850;10.454;2022-10-24T14:19:48;4.83;;;2.40;;
19798;SDS011;10059;59.850;10.454;2022-10-24T14:22:19;2.77;;;1.90;;
19798;SDS011;10059;59.850;10.454;2022-10-24T14:24:48;3.67;;;2.10;;
19798;SDS011;10059;59.850;10.454;2022-10-24T14:27:15;2.97;;;2.10;;
19798;SDS011;10059;59.850;10.454;2022-10-24T14:32:34;4.50;;;2.63;;
19798;SDS011;10059;59.850;10.454;2022-10-24T14:35:03;7.27;;;3.93;;
19798;SDS011;10059;59.850;10.454;2022-10-24T14:37:31;3.17;;;2.27;;
19798;SDS011;10059;59.850;10.454;2022-10-24T14:40:00;3.60;;;2.47;;
19798;SDS011;10059;59.850;10.454;2022-10-24T14:42:29;2.63;;;1.77;;
19798;SDS011;10059;59.850;10.454;2022-10-24T14:44:57;3.53;;;2.07;;
19798;SDS011;10059;59.850;10.454;2022-10-24T14:47:26;4.13;;;2.47;;
19798;SDS011;10059;59.850;10.454;2022-10-24T14:49:54;3.07;;;2.03;;
19798;SDS011;10059;59.850;10.454;2022-10-24T14:52:27;5.27;;;3.00;;
19798;SDS011;10059;59.850;10.454;2022-10-24T14:55:01;3.97;;;2.90;;
19798;SDS011;10059;59.850;10.454;2022-10-24T14:57:31;4.57;;;2.47;;
19798;SDS011;10059;59.850;10.454;2022-10-24T15:00:00;4.80;;;2.90;;
19798;SDS011;10059;59.850;10.454;2022-10-24T15:02:32;5.10;;;3.40;;
19798;SDS011;10059;59.850;10.454;2022-10-24T15:05:11;5.07;;;2.97;;
19798;SDS011;10059;59.850;10.454;2022-10-24T15:07:45;4.17;;;3.00;;
19798;SDS011;10059;59.850;10.454;2022-10-24T15:10:20;3.97;;;2.67;;
19798;SDS011;10059;59.850;10.454;2022-10-24T15:12:58;5.13;;;2.97;;
19798;SDS011;10059;59.850;10.454;2022-10-24T15:15:27;3.30;;;2.40;;
19798;SDS011;10059;59.850;10.454;2022-10-24T15:17:56;5.07;;;2.83;;
19798;SDS011;10059;59.850;10.454;2022-10-24T15:20:25;3.87;;;2.00;;
19798;SDS011;10059;59.850;10.454;2022-10-24T15:22:56;3.17;;;2.30;;